首页
METAR-TAF:

METAR-TAF

机场 :

成吉思汗國際機場

乌兰巴托, 蒙古国

纬度: 47-55N, 经度: 106-52E, 海拔: 1306米

当前天气观测

该预报发布于16分钟前的10:00 UTC
风速6节,风向北转西北
温度 29°C
湿度 13%
气压 1008 hPa
能见度10公里或以上
少量云层高于3300英尺
多云层高于25000英尺

METAR: ZMUB 161000Z 33003MPS 9999 FEW033 BKN250 29/M02 Q1008 NOSIG RMK QFE649.7 13 MOP

时间: 18:16 (10:16 UTC)

预报

该预报发布于5小时和26分钟前的04:50 UTC
预报有效从16日的 06点(UTC)到 17日的 12点(UTC)
风速4节,风向多变
能见度10公里或以上
少量云层高于3000英尺, 积雨云.
散云层高于3300英尺
几率 30% :
短暂存在
从 17日的 07点(UTC)到 17日的 12点(UTC)
风速16节,风向多变
散云层高于2700英尺, 积雨云.
散云层高于3000英尺
雷暴, 雨,

TAF: ZMUB 160450Z 1606/1712 VRB02MPS 9999 FEW030CB SCT033 TX28/1607Z TN10/1621Z PROB30 TEMPO 1707/1712 VRB08MPS TSRA SCT027CB SCT030

超过4000个机场的气象观测和天气预报(METAR&TAF报告)。

可查询的气象台以黄色和红色小点在地图上表示。

将鼠标移到小点上方,可查看气象台名称。

然后点击查看天气观测和预报。

如需切换地图:点击带黑十字的绿色按钮放大地图;点击带横线的绿色按钮缩小地图;或者点击绿色箭头查看邻近地区的地图。


METAR-TAF: